Time;durP1;ratioP1;P1;durP2;ratioP2;P2;SDS_P1;SDS_P2;PMS_P1;PMS_P2;Temp;Humidity;BMP_temperature;BMP_pressure;BME280_temperature;BME280_humidity;BME280_pressure;Samples;Min_cycle;Max_cycle;Signal;HPM_P1;HPM_P2
2023/09/11 00:01:32;;;;;;;8.07;3.80;;;;;;;13.92;91.29;93415.69;5027343;28;20061;-76
2023/09/11 00:03:59;;;;;;;5.20;3.55;;;;;;;13.83;90.97;93415.25;5027031;28;20045;-77
2023/09/11 00:06:26;;;;;;;5.88;3.80;;;;;;;13.82;91.30;93423.22;5027086;28;20053;-76
2023/09/11 00:08:54;;;;;;;5.65;4.18;;;;;;;13.77;91.47;93429.06;5035173;28;20099;-77
2023/09/11 00:11:21;;;;;;;5.72;3.80;;;;;;;13.75;91.50;93421.53;5027329;28;21127;-77
2023/09/11 00:13:47;;;;;;;4.88;4.00;;;;;;;13.67;91.86;93426.22;5027380;28;20042;-76
2023/09/11 00:16:14;;;;;;;5.65;3.63;;;;;;;13.59;92.40;93428.16;5029420;28;20466;-76
2023/09/11 00:18:41;;;;;;;5.13;3.55;;;;;;;13.52;93.44;93431.84;5026903;28;20045;-76
2023/09/11 00:21:08;;;;;;;5.25;3.78;;;;;;;13.44;93.86;93427.75;5026665;28;20111;-76
2023/09/11 00:23:34;;;;;;;5.30;3.92;;;;;;;13.45;93.93;93427.53;5031429;28;20045;-76
2023/09/11 00:26:02;;;;;;;4.45;3.67;;;;;;;13.48;93.78;93421.16;5029512;28;20922;-76
2023/09/11 00:28:29;;;;;;;6.40;3.85;;;;;;;13.43;93.36;93423.59;5028751;28;20585;-75
2023/09/11 00:31:00;;;;;;;10.88;4.47;;;;;;;13.45;93.78;93419.00;5026692;28;20049;-76
2023/09/11 00:33:26;;;;;;;6.82;3.90;;;;;;;13.44;93.58;93414.84;5026793;28;20164;-76
2023/09/11 00:35:53;;;;;;;5.63;4.00;;;;;;;13.36;93.46;93419.31;5027085;28;20050;-77
2023/09/11 00:38:20;;;;;;;6.25;3.88;;;;;;;13.36;92.93;93411.59;5027252;28;20067;-77
2023/09/11 00:40:46;;;;;;;5.40;3.75;;;;;;;13.31;92.92;93410.66;5028724;28;20049;-77
2023/09/11 00:43:15;;;;;;;6.18;4.00;;;;;;;13.14;93.16;93405.38;5032073;28;20577;-78
2023/09/11 00:45:42;;;;;;;6.45;3.65;;;;;;;13.14;93.65;93410.53;5042123;28;20429;-77
2023/09/11 00:48:11;;;;;;;7.07;3.85;;;;;;;13.12;93.46;93415.09;5033050;28;20137;-77
2023/09/11 00:50:38;;;;;;;5.78;4.22;;;;;;;12.94;94.10;93399.47;5026801;28;20053;-77
2023/09/11 00:53:07;;;;;;;6.28;3.78;;;;;;;12.98;95.17;93424.81;5030533;28;20050;-77
2023/09/11 00:55:34;;;;;;;8.52;4.45;;;;;;;12.94;95.38;93416.72;5026597;28;20099;-77
2023/09/11 00:58:01;;;;;;;5.15;3.72;;;;;;;12.92;95.74;93409.22;5027024;28;20107;-77
2023/09/11 01:00:29;;;;;;;6.82;3.97;;;;;;;12.88;95.94;93412.44;5031130;28;20042;-77
2023/09/11 01:02:57;;;;;;;6.40;3.90;;;;;;;12.85;95.84;93410.28;5029692;28;20041;-77
2023/09/11 01:05:28;;;;;;;10.18;4.28;;;;;;;12.78;96.20;93406.00;5032330;28;20045;-77
2023/09/11 01:07:55;;;;;;;7.10;4.45;;;;;;;12.73;96.50;93405.88;5033162;28;20573;-77
2023/09/11 01:10:22;;;;;;;7.72;4.20;;;;;;;12.69;96.90;93399.59;5030228;28;20045;-77
2023/09/11 01:12:49;;;;;;;7.75;4.75;;;;;;;12.63;97.35;93398.69;5030465;28;20045;-77
2023/09/11 01:15:16;;;;;;;6.13;4.10;;;;;;;12.59;97.18;93394.94;5032507;28;20451;-77
2023/09/11 01:17:51;;;;;;;6.07;4.28;;;;;;;12.58;97.77;93388.22;5030436;28;20400;-77
2023/09/11 01:20:38;;;;;;;5.88;4.20;;;;;;;12.57;97.58;93389.25;5030867;28;20045;-77
2023/09/11 01:23:38;;;;;;;6.68;4.55;;;;;;;12.58;97.54;93384.88;5035642;28;20467;-77
2023/09/11 01:26:26;;;;;;;7.25;4.60;;;;;;;12.49;97.60;93376.66;5014577;28;20044;-77
2023/09/11 01:29:12;;;;;;;6.63;4.57;;;;;;;12.55;97.44;93386.88;5030726;28;20049;-76
2023/09/11 01:31:39;;;;;;;9.32;4.47;;;;;;;12.53;97.21;93394.03;5030419;28;20103;-76
2023/09/11 01:34:07;;;;;;;6.15;4.18;;;;;;;12.47;96.62;93379.47;5034396;28;20044;-77
2023/09/11 01:36:34;;;;;;;5.97;3.90;;;;;;;12.42;97.58;93382.66;5029703;28;20077;-77
2023/09/11 01:39:01;;;;;;;7.78;4.30;;;;;;;12.38;97.95;93375.59;5030155;28;20504;-77
2023/09/11 01:41:32;;;;;;;6.63;3.90;;;;;;;12.33;98.26;93381.41;5033968;28;20567;-77
2023/09/11 01:44:05;;;;;;;7.85;4.55;;;;;;;12.32;98.29;93373.88;5032506;28;20041;-77
2023/09/11 01:46:33;;;;;;;7.68;5.10;;;;;;;12.33;99.86;93375.44;5038531;28;20057;-76
2023/09/11 01:49:01;;;;;;;6.38;4.30;;;;;;;12.27;100.00;93374.53;5029945;28;20459;-77
2023/09/11 01:51:31;;;;;;;8.35;4.07;;;;;;;12.31;99.00;93375.66;5031281;28;20095;-77
2023/09/11 01:53:59;;;;;;;6.10;4.22;;;;;;;12.35;99.06;93381.97;5029951;28;20049;-77
2023/09/11 01:56:26;;;;;;;7.18;4.70;;;;;;;12.32;99.64;93382.41;5046401;28;20056;-77
2023/09/11 01:58:56;;;;;;;6.15;4.43;;;;;;;12.29;98.74;93377.66;5033417;28;20545;-78
2023/09/11 02:01:23;;;;;;;6.43;4.32;;;;;;;12.25;98.89;93379.09;5031076;28;20049;-77
2023/09/11 02:03:51;;;;;;;6.20;4.63;;;;;;;12.30;98.55;93384.41;5033531;28;20049;-77
2023/09/11 02:06:17;;;;;;;5.18;4.05;;;;;;;12.27;98.59;93395.16;5029888;28;20042;-77
2023/09/11 02:08:44;;;;;;;5.57;3.90;;;;;;;12.24;98.17;93377.53;5030817;28;20054;-78
2023/09/11 02:11:11;;;;;;;8.82;4.70;;;;;;;12.21;98.38;93385.69;5031472;28;20503;-77
2023/09/11 02:13:38;;;;;;;8.63;4.13;;;;;;;12.15;99.08;93374.47;5035898;28;20049;-77
2023/09/11 02:16:05;;;;;;;5.72;4.25;;;;;;;12.02;99.74;93388.22;5047669;28;20049;-77
2023/09/11 02:18:31;;;;;;;7.93;4.88;;;;;;;12.00;100.00;93387.66;5046361;28;20418;-77
2023/09/11 02:20:59;;;;;;;6.75;4.25;;;;;;;11.99;100.00;93388.66;5028832;28;20099;-77
2023/09/11 02:23:26;;;;;;;7.30;4.30;;;;;;;11.90;100.00;93372.72;5029277;28;20091;-77
2023/09/11 02:25:53;;;;;;;6.65;4.20;;;;;;;11.98;100.00;93392.22;5029675;28;20542;-78
2023/09/11 02:28:20;;;;;;;7.15;4.80;;;;;;;11.87;100.00;93386.81;5029189;28;20057;-78
2023/09/11 02:30:46;;;;;;;8.20;4.72;;;;;;;11.83;100.00;93371.97;5029024;28;20049;-78
2023/09/11 02:33:13;;;;;;;6.85;4.47;;;;;;;11.73;100.00;93378.41;5028849;28;20462;-78
2023/09/11 02:35:40;;;;;;;6.38;4.32;;;;;;;11.80;100.00;93387.88;5030718;28;20087;-78
2023/09/11 02:38:08;;;;;;;7.57;4.55;;;;;;;11.85;100.00;93380.28;5033295;28;20095;-78
2023/09/11 02:40:36;;;;;;;6.60;4.13;;;;;;;11.82;100.00;93388.44;5037719;28;20099;-77
2023/09/11 02:43:03;;;;;;;6.28;4.13;;;;;;;11.80;100.00;93387.88;5031759;28;20057;-77
2023/09/11 02:45:30;;;;;;;6.05;4.07;;;;;;;11.80;100.00;93391.19;5032558;28;20128;-77
2023/09/11 02:47:56;;;;;;;8.55;4.03;;;;;;;11.77;100.00;93378.78;5032833;28;20049;-77
2023/09/11 02:50:23;;;;;;;6.38;3.92;;;;;;;11.71;100.00;93387.34;5046451;28;20091;-77
2023/09/11 02:52:50;;;;;;;5.63;3.90;;;;;;;11.68;100.00;93383.41;5039556;28;20053;-77
2023/09/11 02:55:18;;;;;;;6.78;4.43;;;;;;;11.67;100.00;93391.34;5041935;28;20388;-76
2023/09/11 02:57:45;;;;;;;6.22;4.05;;;;;;;11.72;100.00;93391.50;5046544;28;20045;-76
2023/09/11 03:00:12;;;;;;;6.55;3.85;;;;;;;11.72;100.00;93383.78;5038269;28;20064;-77
2023/09/11 03:02:39;;;;;;;6.00;4.18;;;;;;;11.67;100.00;93381.03;5027875;28;20050;-76
2023/09/11 03:05:07;;;;;;;7.97;4.13;;;;;;;11.67;100.00;93383.63;5028244;28;20561;-76
2023/09/11 03:07:33;;;;;;;5.95;4.40;;;;;;;11.62;100.00;93376.53;5028228;28;20099;-75
2023/09/11 03:10:00;;;;;;;6.55;4.05;;;;;;;11.54;100.00;93371.66;5032720;28;20783;-76
2023/09/11 03:12:30;;;;;;;7.82;4.28;;;;;;;11.52;100.00;93374.44;5031965;28;20045;-76
2023/09/11 03:15:03;;;;;;;6.53;4.10;;;;;;;11.46;100.00;93376.06;5033647;28;20055;-76
2023/09/11 03:17:30;;;;;;;7.57;4.35;;;;;;;11.40;100.00;93386.41;5028137;28;20072;-76
2023/09/11 03:19:56;;;;;;;7.90;4.45;;;;;;;11.39;100.00;93384.84;5028433;28;20041;-76
2023/09/11 03:22:23;;;;;;;8.13;4.50;;;;;;;11.34;100.00;93380.34;5029468;28;20072;-76
2023/09/11 03:24:50;;;;;;;8.38;4.22;;;;;;;11.46;100.00;93378.66;5028035;28;20092;-76
2023/09/11 03:27:17;;;;;;;7.70;4.30;;;;;;;11.40;100.00;93381.25;5033011;28;20499;-76
2023/09/11 03:29:45;;;;;;;8.23;5.40;;;;;;;11.37;100.00;93382.47;5027801;28;20491;-76
2023/09/11 03:32:11;;;;;;;11.95;8.48;;;;;;;11.27;100.00;93380.38;5027692;28;20046;-76
2023/09/11 03:34:38;;;;;;;11.45;7.95;;;;;;;11.29;100.00;93380.94;5029557;28;20042;-75
2023/09/11 03:37:05;;;;;;;9.82;7.72;;;;;;;11.28;100.00;93392.22;5029481;28;20438;-76
2023/09/11 03:39:32;;;;;;;8.20;5.82;;;;;;;11.27;100.00;93380.38;5027085;28;20050;-76
2023/09/11 03:41:58;;;;;;;8.13;5.28;;;;;;;11.22;100.00;93380.97;5032883;28;20451;-76
2023/09/11 03:44:25;;;;;;;7.38;4.68;;;;;;;11.18;100.00;93387.56;5027403;28;20545;-76
2023/09/11 03:46:53;;;;;;;8.93;5.32;;;;;;;11.25;100.00;93389.28;5027633;28;20045;-76
2023/09/11 03:49:20;;;;;;;10.02;5.88;;;;;;;11.25;100.00;93392.63;5029537;28;20556;-75
2023/09/11 03:51:46;;;;;;;7.95;5.30;;;;;;;11.23;100.00;93387.72;5027806;28;20053;-75
2023/09/11 03:54:14;;;;;;;6.95;4.72;;;;;;;11.23;100.00;93381.78;5027621;28;20099;-75
2023/09/11 03:56:40;;;;;;;9.05;6.05;;;;;;;11.16;100.00;93388.75;5029507;28;20045;-75
2023/09/11 03:59:07;;;;;;;6.32;4.60;;;;;;;11.20;100.00;93389.94;5033167;28;20049;-75
2023/09/11 04:01:34;;;;;;;5.68;4.47;;;;;;;11.20;100.00;93398.41;5027157;28;20053;-75
2023/09/11 04:04:02;;;;;;;6.35;4.85;;;;;;;11.11;100.00;93399.66;5027821;28;20364;-76
2023/09/11 04:06:29;;;;;;;11.43;5.00;;;;;;;11.09;100.00;93399.09;5034291;28;20057;-76
2023/09/11 04:08:55;;;;;;;9.50;4.80;;;;;;;11.05;100.00;93395.34;5027260;28;20095;-76
2023/09/11 04:11:23;;;;;;;7.35;4.78;;;;;;;11.10;100.00;93405.78;5027741;28;20648;-75
2023/09/11 04:13:50;;;;;;;6.72;4.97;;;;;;;11.07;100.00;93398.50;5029889;28;21096;-75
2023/09/11 04:16:17;;;;;;;6.20;4.40;;;;;;;11.06;100.00;93396.94;5027229;28;20053;-75
2023/09/11 04:18:43;;;;;;;6.78;4.70;;;;;;;11.07;100.00;93401.09;5027631;28;20515;-75
2023/09/11 04:21:11;;;;;;;8.85;4.85;;;;;;;11.11;100.00;93404.78;5037050;28;20072;-75
2023/09/11 04:23:38;;;;;;;9.65;4.50;;;;;;;11.09;100.00;93409.38;5027347;28;20088;-75
2023/09/11 04:26:06;;;;;;;14.45;4.95;;;;;;;11.14;100.00;93406.97;5028468;28;20424;-75
2023/09/11 04:28:33;;;;;;;8.63;4.65;;;;;;;11.13;100.00;93394.31;5036599;28;20050;-75
2023/09/11 04:31:00;;;;;;;9.65;4.85;;;;;;;11.20;100.00;93405.34;5030105;28;20092;-75
2023/09/11 04:33:28;;;;;;;7.95;4.78;;;;;;;11.15;100.00;93392.34;5031689;28;20049;-75
2023/09/11 04:35:55;;;;;;;6.20;4.50;;;;;;;11.21;100.00;93404.34;5030271;28;20053;-75
2023/09/11 04:38:23;;;;;;;7.57;4.47;;;;;;;11.20;100.00;93413.06;5030599;28;20049;-75
2023/09/11 04:40:56;;;;;;;12.52;4.68;;;;;;;11.23;100.00;93402.34;5033650;28;20127;-76
2023/09/11 04:43:23;;;;;;;7.05;4.75;;;;;;;11.16;100.00;93399.03;5032699;28;20064;-76
2023/09/11 04:45:49;;;;;;;7.47;4.90;;;;;;;11.20;100.00;93406.13;5032428;28;20053;-76
2023/09/11 04:48:16;;;;;;;12.13;5.63;;;;;;;11.17;100.00;93410.91;5031096;28;20462;-76
2023/09/11 04:50:43;;;;;;;9.75;5.30;;;;;;;11.09;100.00;93407.59;5034965;28;20049;-75
2023/09/11 04:53:10;;;;;;;6.40;4.53;;;;;;;11.17;100.00;93416.84;5031279;28;20053;-76
2023/09/11 04:55:38;;;;;;;11.27;5.55;;;;;;;11.20;100.00;93423.34;5030980;28;20050;-76
2023/09/11 04:58:05;;;;;;;7.82;5.15;;;;;;;11.19;100.00;93414.84;5031959;28;20454;-76
2023/09/11 05:00:31;;;;;;;7.63;5.57;;;;;;;11.22;100.00;93411.84;5031163;28;20092;-76
2023/09/11 05:02:58;;;;;;;10.18;5.53;;;;;;;11.31;100.00;93429.59;5034183;28;20045;-76
2023/09/11 05:05:25;;;;;;;11.38;5.47;;;;;;;11.39;100.00;93423.41;5048769;28;20049;-75
2023/09/11 05:07:52;;;;;;;12.13;5.13;;;;;;;11.46;100.00;93422.38;5048115;28;20056;-76
2023/09/11 05:10:18;;;;;;;11.18;5.97;;;;;;;11.49;100.00;93421.94;5034224;28;20079;-75
2023/09/11 05:12:47;;;;;;;10.45;5.43;;;;;;;11.54;100.00;93410.25;5029290;28;20072;-75
2023/09/11 05:15:14;;;;;;;8.77;4.88;;;;;;;11.62;100.00;93415.91;5034024;28;20050;-75
2023/09/11 05:17:39;;;;;;;9.95;5.65;;;;;;;11.69;100.00;93409.91;5030624;28;20140;-76
2023/09/11 05:20:07;;;;;;;10.57;5.60;;;;;;;11.74;100.00;93408.28;5034522;28;20045;-76
2023/09/11 05:22:34;;;;;;;8.35;5.25;;;;;;;11.82;100.00;93409.00;5030617;28;20455;-76
2023/09/11 05:25:01;;;;;;;9.90;5.75;;;;;;;11.76;100.00;93419.16;5031808;28;20050;-76
2023/09/11 05:27:28;;;;;;;9.82;5.72;;;;;;;11.84;100.00;93417.31;5044500;28;20053;-76
2023/09/11 05:29:56;;;;;;;10.85;6.28;;;;;;;11.94;100.00;93406.53;5037521;28;20507;-76
2023/09/11 05:32:25;;;;;;;10.40;6.25;;;;;;;12.03;100.00;93412.97;5029831;28;20048;-75
2023/09/11 05:34:51;;;;;;;13.82;6.28;;;;;;;12.12;100.00;93411.72;5034031;28;20049;-76
2023/09/11 05:37:18;;;;;;;10.55;5.65;;;;;;;12.16;100.00;93381.97;5030419;28;20458;-75
2023/09/11 05:39:45;;;;;;;8.05;5.63;;;;;;;12.42;100.00;93399.94;5030075;28;20075;-76
2023/09/11 05:42:11;;;;;;;13.90;5.90;;;;;;;12.53;100.00;93417.22;5032332;28;20052;-76
2023/09/11 05:44:38;;;;;;;10.57;5.65;;;;;;;12.62;100.00;93402.25;5036581;28;20099;-76
2023/09/11 05:47:07;;;;;;;9.00;6.20;;;;;;;12.77;100.00;93409.59;5032572;28;20068;-75
2023/09/11 05:49:34;;;;;;;8.35;5.25;;;;;;;12.92;100.00;93409.22;5032744;28;20049;-76
2023/09/11 05:52:00;;;;;;;9.48;6.05;;;;;;;13.06;100.00;93399.50;5034119;28;20042;-76
2023/09/11 05:54:29;;;;;;;10.48;5.80;;;;;;;13.08;100.00;93405.25;5035528;28;20470;-76
2023/09/11 05:56:55;;;;;;;7.10;5.20;;;;;;;13.23;100.00;93402.25;5034106;28;20145;-76
2023/09/11 05:59:24;;;;;;;10.45;5.25;;;;;;;13.39;100.00;93402.63;5033867;28;20048;-75
2023/09/11 06:01:50;;;;;;;11.43;5.45;;;;;;;13.53;100.00;93392.09;5041715;28;20044;-75
2023/09/11 06:04:18;;;;;;;9.93;6.00;;;;;;;13.72;99.36;93400.53;5043027;28;21061;-76
2023/09/11 06:06:45;;;;;;;10.27;5.93;;;;;;;13.85;100.00;93389.97;5040875;28;20041;-76
2023/09/11 06:09:12;;;;;;;8.02;5.82;;;;;;;13.90;100.00;93390.09;5038443;28;20048;-76
2023/09/11 06:11:38;;;;;;;7.95;5.05;;;;;;;14.06;98.69;93390.41;5039362;28;20049;-76
2023/09/11 06:14:06;;;;;;;11.55;6.72;;;;;;;14.09;100.00;93394.34;5037675;28;20052;-75
2023/09/11 06:16:33;;;;;;;8.95;5.00;;;;;;;14.26;98.06;93400.38;5032395;28;20041;-75
2023/09/11 06:19:01;;;;;;;9.85;5.55;;;;;;;14.37;100.00;93395.44;5039649;28;20041;-75
2023/09/11 06:21:29;;;;;;;10.13;5.43;;;;;;;14.36;100.00;93407.56;5042746;28;20037;-75
2023/09/11 06:23:55;;;;;;;14.98;6.47;;;;;;;14.49;100.00;93398.75;5041783;28;20092;-75
2023/09/11 06:26:22;;;;;;;8.15;4.85;;;;;;;14.64;97.72;93400.06;5040238;28;20095;-76
2023/09/11 06:28:50;;;;;;;13.35;5.65;;;;;;;14.81;95.91;93400.94;5038535;28;20526;-76
2023/09/11 06:31:17;;;;;;;11.13;5.90;;;;;;;15.03;95.99;93407.25;5040132;28;20045;-76
2023/09/11 06:33:44;;;;;;;8.50;5.03;;;;;;;15.17;96.80;93407.75;5040388;28;20072;-76
2023/09/11 06:36:11;;;;;;;8.35;5.10;;;;;;;15.33;96.09;93404.41;5038683;28;20041;-76
2023/09/11 06:38:39;;;;;;;6.35;4.72;;;;;;;15.38;95.27;93400.34;5042351;28;20102;-77
2023/09/11 06:41:05;;;;;;;9.73;6.00;;;;;;;15.56;95.00;93413.03;5040903;28;20052;-76
2023/09/11 06:43:32;;;;;;;7.80;5.53;;;;;;;15.75;94.31;93412.81;5041571;28;20041;-76
2023/09/11 06:45:59;;;;;;;7.00;4.75;;;;;;;15.77;94.37;93410.75;5038299;28;20049;-77
2023/09/11 06:48:26;;;;;;;10.15;4.93;;;;;;;15.83;93.91;93406.47;5033773;28;20477;-76
2023/09/11 06:50:54;;;;;;;10.57;5.72;;;;;;;16.05;94.12;93410.94;5033583;28;20057;-76
2023/09/11 06:53:20;;;;;;;10.27;4.80;;;;;;;16.09;93.04;93404.22;5040284;28;20152;-76
2023/09/11 06:55:49;;;;;;;11.00;5.00;;;;;;;16.04;93.23;93407.53;5039709;28;20441;-76
2023/09/11 06:58:16;;;;;;;8.35;4.25;;;;;;;16.25;92.21;93398.22;5040005;28;20040;-77
2023/09/11 07:00:42;;;;;;;8.65;3.78;;;;;;;16.33;91.43;93407.41;5037231;28;20067;-76
2023/09/11 07:03:09;;;;;;;11.88;4.10;;;;;;;16.48;90.16;93399.00;5041669;28;20045;-76
2023/09/11 07:05:39;;;;;;;9.25;4.10;;;;;;;16.65;89.03;93392.97;5038574;28;20049;-76
2023/09/11 07:08:06;;;;;;;12.48;4.80;;;;;;;16.91;89.05;93394.06;5035329;28;20049;-76
2023/09/11 07:10:33;;;;;;;11.20;4.28;;;;;;;17.28;87.87;93405.56;5040557;28;20100;-76
2023/09/11 07:13:01;;;;;;;8.95;4.47;;;;;;;17.63;86.41;93395.69;5038910;28;20816;-76
2023/09/11 07:15:28;;;;;;;10.90;3.97;;;;;;;17.90;85.02;93393.03;5040909;28;20060;-76
2023/09/11 07:17:54;;;;;;;6.95;3.60;;;;;;;18.22;83.25;93388.03;5040903;28;20057;-76
2023/09/11 07:20:22;;;;;;;7.47;3.70;;;;;;;18.29;81.04;93388.59;5039203;28;20041;-76
2023/09/11 07:22:49;;;;;;;10.27;3.72;;;;;;;18.61;78.94;93387.66;5038181;28;20135;-76
2023/09/11 07:25:17;;;;;;;7.47;3.10;;;;;;;18.74;78.58;93394.22;5042080;28;20062;-76
2023/09/11 07:27:44;;;;;;;5.25;3.00;;;;;;;18.94;77.84;93392.72;5040201;28;20047;-77
2023/09/11 07:30:12;;;;;;;11.75;3.78;;;;;;;19.21;77.08;93391.75;5039661;28;20045;-76
2023/09/11 07:32:39;;;;;;;6.25;3.28;;;;;;;19.48;77.58;93381.06;5040121;28;20041;-76
2023/09/11 07:35:07;;;;;;;11.90;3.40;;;;;;;19.80;76.90;93387.03;5029457;28;20454;-76
2023/09/11 07:37:34;;;;;;;7.25;3.08;;;;;;;20.11;75.50;93387.03;5028665;28;20045;-76
2023/09/11 07:40:01;;;;;;;8.73;3.58;;;;;;;20.36;73.78;93390.59;5028187;28;20053;-77
2023/09/11 07:42:27;;;;;;;8.45;3.15;;;;;;;20.50;71.92;93395.25;5031151;28;20138;-76
2023/09/11 07:44:54;;;;;;;10.15;3.20;;;;;;;20.74;70.85;93386.78;5029340;28;20506;-76
2023/09/11 07:47:22;;;;;;;8.57;2.97;;;;;;;20.95;68.37;93387.50;5031871;28;20053;-76
2023/09/11 07:49:49;;;;;;;6.15;3.10;;;;;;;21.16;69.59;93385.53;5029915;28;20084;-76
2023/09/11 07:52:16;;;;;;;8.70;3.42;;;;;;;21.41;70.02;93375.97;5032064;28;20044;-76
2023/09/11 07:54:43;;;;;;;9.65;2.40;;;;;;;21.67;68.70;93380.19;5032052;28;20056;-76
2023/09/11 07:57:12;;;;;;;8.60;2.90;;;;;;;21.81;67.36;93369.91;5035369;28;20136;-76
2023/09/11 07:59:39;;;;;;;6.68;2.80;;;;;;;22.05;65.68;93377.00;5033436;28;20515;-76
2023/09/11 08:02:06;;;;;;;5.25;2.63;;;;;;;22.01;63.01;93374.94;5033200;28;20057;-76
2023/09/11 08:04:35;;;;;;;6.00;2.88;;;;;;;21.49;63.65;93377.22;5034487;28;20049;-77
2023/09/11 08:07:02;;;;;;;7.88;2.60;;;;;;;21.46;64.11;93381.16;5035595;28;20168;-78
2023/09/11 08:09:29;;;;;;;4.97;2.50;;;;;;;21.29;65.60;93372.94;5037134;28;20051;-77
2023/09/11 08:11:56;;;;;;;5.75;2.83;;;;;;;21.73;64.37;93363.44;5037736;28;20080;-76
2023/09/11 08:14:23;;;;;;;5.45;2.53;;;;;;;21.95;60.71;93367.41;5036300;28;20419;-77
2023/09/11 08:16:50;;;;;;;8.07;2.70;;;;;;;22.06;59.67;93362.84;5035057;28;20119;-77
2023/09/11 08:19:17;;;;;;;5.53;2.38;;;;;;;22.22;58.39;93366.09;5034336;28;20446;-77
2023/09/11 08:21:45;;;;;;;10.57;3.67;;;;;;;22.26;57.75;93356.66;5034235;28;20111;-77
2023/09/11 08:24:13;;;;;;;5.32;2.75;;;;;;;21.99;57.79;93355.34;5033783;28;20500;-78
2023/09/11 08:26:39;;;;;;;4.60;2.33;;;;;;;21.95;57.99;93359.56;5037353;28;20045;-76
2023/09/11 08:29:10;;;;;;;6.05;2.50;;;;;;;22.03;58.18;93364.97;5033237;28;20102;-78
2023/09/11 08:31:37;;;;;;;5.43;2.42;;;;;;;22.02;58.06;93346.94;5032775;28;21111;-77
2023/09/11 08:34:04;;;;;;;5.25;2.45;;;;;;;21.98;55.96;93349.34;5031485;28;20057;-77
2023/09/11 08:36:31;;;;;;;6.10;2.50;;;;;;;21.98;56.33;93357.19;5034334;28;20552;-76
2023/09/11 08:38:59;;;;;;;5.80;2.13;;;;;;;22.03;57.76;93351.91;5041477;28;20457;-77
2023/09/11 08:41:27;;;;;;;9.13;3.13;;;;;;;21.98;56.57;93351.19;5036071;28;20095;-77
2023/09/11 08:43:53;;;;;;;4.97;2.20;;;;;;;22.16;56.24;93360.91;5033529;28;20557;-77
2023/09/11 08:46:22;;;;;;;6.35;2.80;;;;;;;22.28;57.51;93344.81;5036002;28;20042;-76
2023/09/11 08:48:54;;;;;;;7.57;2.45;;;;;;;22.38;54.61;93351.00;5034738;28;20049;-77
2023/09/11 08:51:23;;;;;;;4.93;2.90;;;;;;;22.28;55.62;93352.66;5033327;28;20045;-76
2023/09/11 08:53:52;;;;;;;10.07;2.42;;;;;;;22.32;55.46;93341.66;5036422;28;20041;-77
2023/09/11 08:56:20;;;;;;;4.32;2.33;;;;;;;22.24;54.52;93349.06;5034027;28;20098;-78
2023/09/11 08:58:50;;;;;;;5.10;2.35;;;;;;;22.33;54.12;93351.06;5033428;28;20140;-76
2023/09/11 09:01:17;;;;;;;7.55;2.83;;;;;;;22.50;53.50;93330.41;5036327;28;20809;-76
2023/09/11 09:03:45;;;;;;;8.13;2.17;;;;;;;22.41;53.46;93340.75;5034397;28;20491;-76
2023/09/11 09:06:13;;;;;;;5.50;2.30;;;;;;;22.32;52.63;93337.22;5035181;28;20045;-77
2023/09/11 09:08:40;;;;;;;6.57;2.15;;;;;;;22.23;52.50;93354.56;5037755;28;20041;-76
2023/09/11 09:11:07;;;;;;;11.90;3.05;;;;;;;22.49;52.60;93339.34;5032516;28;20049;-77
2023/09/11 09:13:35;;;;;;;5.95;2.17;;;;;;;22.65;51.87;93332.13;5034664;28;20443;-77
2023/09/11 09:16:02;;;;;;;3.58;1.90;;;;;;;22.58;51.23;93338.75;5033805;28;20861;-76
2023/09/11 09:18:29;;;;;;;4.00;2.20;;;;;;;23.00;50.96;93339.72;5034507;28;20477;-76
2023/09/11 09:20:56;;;;;;;4.55;2.40;;;;;;;23.01;49.84;93335.28;5035353;28;20045;-76
2023/09/11 09:23:32;;;;;;;6.97;2.20;;;;;;;22.87;50.00;93340.47;5034852;28;20085;-76
2023/09/11 09:26:06;;;;;;;4.72;2.28;;;;;;;23.01;49.51;93335.28;5039391;28;20416;-79
2023/09/11 09:28:35;;;;;;;6.32;2.40;;;;;;;23.06;49.96;93338.59;5038446;28;20544;-76
2023/09/11 09:31:02;;;;;;;6.00;2.03;;;;;;;23.05;49.47;93333.66;5032233;28;20045;-77
2023/09/11 09:33:30;;;;;;;4.28;1.90;;;;;;;23.32;49.41;93326.97;5035741;28;20049;-77
2023/09/11 09:35:57;;;;;;;8.63;2.42;;;;;;;23.58;47.48;93332.59;5036381;28;20107;-77
2023/09/11 09:38:26;;;;;;;5.65;2.00;;;;;;;23.68;47.82;93330.84;5034641;28;20045;-77
2023/09/11 09:40:54;;;;;;;4.32;1.90;;;;;;;23.66;45.59;93325.13;5036905;28;20115;-76
2023/09/11 09:43:21;;;;;;;6.10;2.08;;;;;;;23.50;46.27;93314.88;5036735;28;20037;-77
2023/09/11 09:45:49;;;;;;;5.10;1.85;;;;;;;23.64;45.60;93314.16;5034571;28;20076;-77
2023/09/11 09:48:17;;;;;;;4.72;1.88;;;;;;;23.62;45.25;93315.19;5032445;28;20503;-78
2023/09/11 09:50:52;;;;;;;4.38;2.28;;;;;;;23.52;46.98;93322.47;5033112;28;20095;-77
2023/09/11 09:53:24;;;;;;;2.70;1.58;;;;;;;23.38;47.28;93311.94;5031255;28;20048;-77
2023/09/11 09:55:51;;;;;;;4.97;1.70;;;;;;;23.36;44.82;93309.63;5031863;28;20064;-77
2023/09/11 09:58:20;;;;;;;6.10;1.80;;;;;;;23.43;45.42;93296.94;5036733;28;20167;-77
2023/09/11 10:00:46;;;;;;;5.47;2.42;;;;;;;23.57;44.89;93304.81;5030670;28;20092;-77
2023/09/11 10:03:15;;;;;;;5.53;2.63;;;;;;;23.97;44.74;93304.34;5033870;28;20984;-77
2023/09/11 10:05:42;;;;;;;6.10;2.83;;;;;;;23.61;43.29;93286.66;5033725;28;20118;-77
2023/09/11 10:08:09;;;;;;;3.67;2.17;;;;;;;23.49;43.60;93306.25;5037027;28;20115;-77
2023/09/11 10:10:35;;;;;;;5.72;2.60;;;;;;;23.58;43.16;93295.88;5032701;28;20052;-77
2023/09/11 10:13:06;;;;;;;7.63;3.65;;;;;;;24.03;43.19;93307.66;5032567;28;20894;-77
2023/09/11 10:15:34;;;;;;;6.53;3.03;;;;;;;23.82;42.29;93297.56;5029885;28;20057;-76
2023/09/11 10:18:02;;;;;;;6.95;3.00;;;;;;;23.59;43.03;93304.50;5031090;28;20111;-76
2023/09/11 10:20:31;;;;;;;6.55;2.25;;;;;;;23.40;44.19;93292.25;5033104;28;20089;-76
2023/09/11 10:23:01;;;;;;;6.90;3.28;;;;;;;23.35;45.40;93292.34;5035292;28;20126;-76
2023/09/11 10:25:30;;;;;;;3.70;2.47;;;;;;;23.24;46.27;93294.34;5030132;28;20096;-76
2023/09/11 10:28:01;;;;;;;6.10;2.72;;;;;;;23.47;46.39;93281.41;5030782;28;20049;-78
2023/09/11 10:30:39;;;;;;;7.50;3.35;;;;;;;23.91;44.99;93281.91;5030335;28;20610;-77
2023/09/11 10:33:12;;;;;;;4.68;2.15;;;;;;;23.81;44.96;93287.34;5035707;28;20048;-77
2023/09/11 10:35:41;;;;;;;5.07;2.28;;;;;;;23.65;44.95;93282.38;5034244;28;20050;-78
2023/09/11 10:38:09;;;;;;;4.95;2.25;;;;;;;23.68;44.78;93286.25;5034762;28;20053;-77
2023/09/11 10:40:39;;;;;;;5.10;2.53;;;;;;;23.73;43.84;93291.41;5036364;28;20094;-77
2023/09/11 10:43:07;;;;;;;4.38;1.88;;;;;;;23.79;45.01;93279.75;5029975;28;20048;-77
2023/09/11 10:45:33;;;;;;;4.82;1.98;;;;;;;23.55;45.83;93244.00;5033494;28;20512;-77
2023/09/11 10:48:01;;;;;;;3.25;1.65;;;;;;;23.87;44.23;93267.81;5033598;28;20129;-77
2023/09/11 10:50:32;;;;;;;3.40;1.52;;;;;;;24.07;43.01;93268.50;5031663;28;20060;-77
2023/09/11 10:53:00;;;;;;;3.78;2.00;;;;;;;24.24;44.13;93267.91;5034964;28;20107;-78
2023/09/11 10:55:27;;;;;;;6.00;2.50;;;;;;;23.81;44.71;93263.75;5032987;28;20092;-77
2023/09/11 10:57:54;;;;;;;4.25;1.90;;;;;;;24.08;44.57;93251.72;5032487;28;20049;-77
2023/09/11 11:00:23;;;;;;;4.80;1.80;;;;;;;24.22;42.40;93270.06;5030012;28;20164;-77
2023/09/11 11:02:51;;;;;;;3.75;1.73;;;;;;;24.51;43.00;93263.69;5029437;28;20132;-76
2023/09/11 11:05:18;;;;;;;4.88;2.13;;;;;;;24.48;41.38;93251.91;5028118;28;20095;-77
2023/09/11 11:07:49;;;;;;;5.15;2.35;;;;;;;24.59;42.15;93259.59;5028430;28;20207;-77
2023/09/11 11:10:17;;;;;;;4.70;1.80;;;;;;;24.61;41.60;93260.06;5043232;28;20519;-76
2023/09/11 11:12:47;;;;;;;5.68;1.50;;;;;;;24.43;41.17;93259.91;5036935;28;20103;-78
2023/09/11 11:15:24;;;;;;;3.10;1.58;;;;;;;24.17;40.74;93257.84;5040139;28;20056;-77
2023/09/11 11:18:08;;;;;;;4.97;1.85;;;;;;;24.19;42.46;93254.91;5034752;28;20049;-77
2023/09/11 11:20:35;;;;;;;4.15;2.00;;;;;;;24.40;42.29;93257.88;5039479;28;20384;-77
2023/09/11 11:23:10;;;;;;;3.92;1.83;;;;;;;24.62;42.47;93251.88;5037344;28;20044;-77
2023/09/11 11:25:41;;;;;;;3.97;1.83;;;;;;;24.36;43.78;93252.47;5030675;28;21481;-78
2023/09/11 11:28:14;;;;;;;3.53;1.73;;;;;;;24.30;42.58;93245.75;5032004;28;20057;-78
2023/09/11 11:30:43;;;;;;;6.05;2.38;;;;;;;24.50;42.70;93241.13;5027621;28;20049;-77
2023/09/11 11:33:15;;;;;;;4.57;1.88;;;;;;;24.51;42.28;93242.69;5033283;28;20045;-77